sensor_id;sensor_type;location;lat;lon;timestamp;P1;durP1;ratioP1;P2;durP2;ratioP2
5608;SDS011;2826;51.354;9.588;2022-10-16T00:00:47;5.80;;;4.27;;
5608;SDS011;2826;51.354;9.588;2022-10-16T00:03:15;4.57;;;4.17;;
5608;SDS011;2826;51.354;9.588;2022-10-16T00:05:42;4.60;;;4.20;;
5608;SDS011;2826;51.354;9.588;2022-10-16T00:08:10;15.07;;;4.20;;
5608;SDS011;2826;51.354;9.588;2022-10-16T00:10:38;4.10;;;3.70;;
5608;SDS011;2826;51.354;9.588;2022-10-16T00:13:06;4.63;;;4.10;;
5608;SDS011;2826;51.354;9.588;2022-10-16T00:15:34;5.03;;;4.27;;
5608;SDS011;2826;51.354;9.588;2022-10-16T00:18:03;11.30;;;4.50;;
5608;SDS011;2826;51.354;9.588;2022-10-16T00:20:32;9.67;;;4.30;;
5608;SDS011;2826;51.354;9.588;2022-10-16T00:23:02;5.93;;;4.60;;
5608;SDS011;2826;51.354;9.588;2022-10-16T00:25:29;5.90;;;4.63;;
5608;SDS011;2826;51.354;9.588;2022-10-16T00:27:58;4.87;;;4.37;;
5608;SDS011;2826;51.354;9.588;2022-10-16T00:30:25;5.23;;;4.77;;
5608;SDS011;2826;51.354;9.588;2022-10-16T00:32:53;8.03;;;4.60;;
5608;SDS011;2826;51.354;9.588;2022-10-16T00:35:20;5.47;;;4.70;;
5608;SDS011;2826;51.354;9.588;2022-10-16T00:37:48;5.10;;;4.60;;
5608;SDS011;2826;51.354;9.588;2022-10-16T00:40:15;4.93;;;4.53;;
5608;SDS011;2826;51.354;9.588;2022-10-16T00:42:42;5.07;;;4.57;;
5608;SDS011;2826;51.354;9.588;2022-10-16T00:45:09;8.73;;;4.73;;
5608;SDS011;2826;51.354;9.588;2022-10-16T00:47:39;5.37;;;4.87;;
5608;SDS011;2826;51.354;9.588;2022-10-16T00:50:08;5.10;;;4.70;;
5608;SDS011;2826;51.354;9.588;2022-10-16T00:52:37;4.90;;;4.40;;
5608;SDS011;2826;51.354;9.588;2022-10-16T00:55:09;6.83;;;4.50;;
5608;SDS011;2826;51.354;9.588;2022-10-16T00:57:36;8.63;;;4.20;;
5608;SDS011;2826;51.354;9.588;2022-10-16T01:00:05;7.23;;;5.07;;
5608;SDS011;2826;51.354;9.588;2022-10-16T01:02:34;5.27;;;4.63;;
5608;SDS011;2826;51.354;9.588;2022-10-16T01:05:01;5.70;;;4.50;;
5608;SDS011;2826;51.354;9.588;2022-10-16T01:07:31;4.50;;;4.10;;
5608;SDS011;2826;51.354;9.588;2022-10-16T01:10:08;5.30;;;4.80;;
5608;SDS011;2826;51.354;9.588;2022-10-16T01:12:45;11.07;;;4.50;;
5608;SDS011;2826;51.354;9.588;2022-10-16T01:15:18;6.23;;;4.60;;
5608;SDS011;2826;51.354;9.588;2022-10-16T01:17:51;6.00;;;5.00;;
5608;SDS011;2826;51.354;9.588;2022-10-16T01:20:25;4.70;;;4.27;;
5608;SDS011;2826;51.354;9.588;2022-10-16T01:23:09;5.10;;;4.60;;
5608;SDS011;2826;51.354;9.588;2022-10-16T01:25:54;7.33;;;4.70;;
5608;SDS011;2826;51.354;9.588;2022-10-16T01:28:36;11.23;;;5.40;;
5608;SDS011;2826;51.354;9.588;2022-10-16T01:31:08;4.80;;;4.40;;
5608;SDS011;2826;51.354;9.588;2022-10-16T01:33:38;14.53;;;5.40;;
5608;SDS011;2826;51.354;9.588;2022-10-16T01:36:10;6.07;;;5.47;;
5608;SDS011;2826;51.354;9.588;2022-10-16T01:38:40;6.40;;;4.93;;
5608;SDS011;2826;51.354;9.588;2022-10-16T01:41:11;10.20;;;5.77;;
5608;SDS011;2826;51.354;9.588;2022-10-16T01:43:46;7.20;;;5.43;;
5608;SDS011;2826;51.354;9.588;2022-10-16T01:46:16;6.00;;;5.50;;
5608;SDS011;2826;51.354;9.588;2022-10-16T01:48:46;6.07;;;5.53;;
5608;SDS011;2826;51.354;9.588;2022-10-16T01:51:15;11.90;;;6.00;;
5608;SDS011;2826;51.354;9.588;2022-10-16T01:53:46;8.23;;;6.40;;
5608;SDS011;2826;51.354;9.588;2022-10-16T01:56:18;10.33;;;7.00;;
5608;SDS011;2826;51.354;9.588;2022-10-16T01:58:49;7.70;;;6.90;;
5608;SDS011;2826;51.354;9.588;2022-10-16T02:01:21;8.93;;;7.00;;
5608;SDS011;2826;51.354;9.588;2022-10-16T02:03:49;9.97;;;7.37;;
5608;SDS011;2826;51.354;9.588;2022-10-16T02:06:20;10.10;;;6.90;;
5608;SDS011;2826;51.354;9.588;2022-10-16T02:08:48;13.93;;;7.70;;
5608;SDS011;2826;51.354;9.588;2022-10-16T02:11:15;9.30;;;8.30;;
5608;SDS011;2826;51.354;9.588;2022-10-16T02:13:43;9.17;;;7.63;;
5608;SDS011;2826;51.354;9.588;2022-10-16T02:16:14;10.57;;;7.90;;
5608;SDS011;2826;51.354;9.588;2022-10-16T02:18:41;10.23;;;8.40;;
5608;SDS011;2826;51.354;9.588;2022-10-16T02:21:11;10.90;;;8.97;;
5608;SDS011;2826;51.354;9.588;2022-10-16T02:23:45;11.10;;;10.00;;
5608;SDS011;2826;51.354;9.588;2022-10-16T02:26:19;12.83;;;9.40;;
5608;SDS011;2826;51.354;9.588;2022-10-16T02:28:55;9.97;;;8.90;;
5608;SDS011;2826;51.354;9.588;2022-10-16T02:31:32;10.53;;;9.20;;
5608;SDS011;2826;51.354;9.588;2022-10-16T02:34:02;13.47;;;9.00;;
5608;SDS011;2826;51.354;9.588;2022-10-16T02:36:32;11.53;;;8.60;;
5608;SDS011;2826;51.354;9.588;2022-10-16T02:39:02;11.53;;;9.23;;
5608;SDS011;2826;51.354;9.588;2022-10-16T02:41:30;10.43;;;8.47;;
5608;SDS011;2826;51.354;9.588;2022-10-16T02:43:58;11.60;;;10.03;;
5608;SDS011;2826;51.354;9.588;2022-10-16T02:46:25;13.83;;;8.70;;
5608;SDS011;2826;51.354;9.588;2022-10-16T02:48:53;12.77;;;8.87;;
5608;SDS011;2826;51.354;9.588;2022-10-16T02:51:20;11.03;;;8.67;;
5608;SDS011;2826;51.354;9.588;2022-10-16T02:53:47;9.87;;;8.70;;
5608;SDS011;2826;51.354;9.588;2022-10-16T02:56:14;15.30;;;9.90;;
5608;SDS011;2826;51.354;9.588;2022-10-16T02:58:41;18.97;;;8.70;;
5608;SDS011;2826;51.354;9.588;2022-10-16T03:01:08;10.70;;;8.87;;
5608;SDS011;2826;51.354;9.588;2022-10-16T03:03:37;8.60;;;7.80;;
5608;SDS011;2826;51.354;9.588;2022-10-16T03:06:06;13.27;;;8.43;;
5608;SDS011;2826;51.354;9.588;2022-10-16T03:08:32;8.63;;;7.63;;
5608;SDS011;2826;51.354;9.588;2022-10-16T03:10:59;8.80;;;7.90;;
5608;SDS011;2826;51.354;9.588;2022-10-16T03:13:27;10.63;;;7.97;;
5608;SDS011;2826;51.354;9.588;2022-10-16T03:15:54;11.00;;;7.50;;
5608;SDS011;2826;51.354;9.588;2022-10-16T03:18:21;10.10;;;7.53;;
5608;SDS011;2826;51.354;9.588;2022-10-16T03:20:48;7.60;;;6.90;;
5608;SDS011;2826;51.354;9.588;2022-10-16T03:23:16;10.10;;;6.73;;
5608;SDS011;2826;51.354;9.588;2022-10-16T03:25:43;9.80;;;7.30;;
5608;SDS011;2826;51.354;9.588;2022-10-16T03:28:10;13.03;;;6.80;;
5608;SDS011;2826;51.354;9.588;2022-10-16T03:30:37;7.63;;;6.83;;
5608;SDS011;2826;51.354;9.588;2022-10-16T03:33:05;8.83;;;6.47;;
5608;SDS011;2826;51.354;9.588;2022-10-16T03:35:32;7.43;;;6.73;;
5608;SDS011;2826;51.354;9.588;2022-10-16T03:37:59;7.07;;;6.30;;
5608;SDS011;2826;51.354;9.588;2022-10-16T03:40:27;7.00;;;6.30;;
5608;SDS011;2826;51.354;9.588;2022-10-16T03:42:56;6.97;;;5.70;;
5608;SDS011;2826;51.354;9.588;2022-10-16T03:45:23;6.87;;;6.17;;
5608;SDS011;2826;51.354;9.588;2022-10-16T03:47:50;7.90;;;6.30;;
5608;SDS011;2826;51.354;9.588;2022-10-16T03:50:17;6.30;;;5.70;;
5608;SDS011;2826;51.354;9.588;2022-10-16T03:52:44;12.00;;;6.60;;
5608;SDS011;2826;51.354;9.588;2022-10-16T03:55:11;11.47;;;6.80;;
5608;SDS011;2826;51.354;9.588;2022-10-16T03:57:39;10.83;;;6.67;;
5608;SDS011;2826;51.354;9.588;2022-10-16T04:00:06;7.23;;;5.50;;
5608;SDS011;2826;51.354;9.588;2022-10-16T04:02:37;6.17;;;5.57;;
5608;SDS011;2826;51.354;9.588;2022-10-16T04:05:05;6.10;;;5.60;;
5608;SDS011;2826;51.354;9.588;2022-10-16T04:07:32;10.37;;;6.60;;
5608;SDS011;2826;51.354;9.588;2022-10-16T04:09:59;7.60;;;6.20;;
5608;SDS011;2826;51.354;9.588;2022-10-16T04:12:26;9.33;;;6.00;;
5608;SDS011;2826;51.354;9.588;2022-10-16T04:14:55;6.30;;;5.70;;
5608;SDS011;2826;51.354;9.588;2022-10-16T04:17:22;6.60;;;5.97;;
5608;SDS011;2826;51.354;9.588;2022-10-16T04:19:48;7.97;;;6.00;;
5608;SDS011;2826;51.354;9.588;2022-10-16T04:22:15;6.57;;;5.97;;
5608;SDS011;2826;51.354;9.588;2022-10-16T04:24:42;12.63;;;5.67;;
5608;SDS011;2826;51.354;9.588;2022-10-16T04:27:09;7.53;;;6.00;;
5608;SDS011;2826;51.354;9.588;2022-10-16T04:29:36;6.47;;;5.83;;
5608;SDS011;2826;51.354;9.588;2022-10-16T04:32:04;7.73;;;5.70;;
5608;SDS011;2826;51.354;9.588;2022-10-16T04:34:31;7.93;;;6.13;;
5608;SDS011;2826;51.354;9.588;2022-10-16T04:36:58;5.93;;;5.33;;
5608;SDS011;2826;51.354;9.588;2022-10-16T04:39:25;6.80;;;6.10;;
5608;SDS011;2826;51.354;9.588;2022-10-16T04:41:51;9.67;;;5.90;;
5608;SDS011;2826;51.354;9.588;2022-10-16T04:44:18;8.73;;;5.90;;
5608;SDS011;2826;51.354;9.588;2022-10-16T04:46:45;6.43;;;5.40;;
5608;SDS011;2826;51.354;9.588;2022-10-16T04:49:13;7.27;;;5.10;;
5608;SDS011;2826;51.354;9.588;2022-10-16T04:51:40;6.57;;;5.20;;
5608;SDS011;2826;51.354;9.588;2022-10-16T04:54:08;8.53;;;5.17;;
5608;SDS011;2826;51.354;9.588;2022-10-16T04:56:35;14.23;;;6.17;;
5608;SDS011;2826;51.354;9.588;2022-10-16T04:59:13;12.27;;;5.47;;
5608;SDS011;2826;51.354;9.588;2022-10-16T05:01:40;7.63;;;5.70;;
5608;SDS011;2826;51.354;9.588;2022-10-16T05:04:07;6.50;;;4.83;;
5608;SDS011;2826;51.354;9.588;2022-10-16T05:06:36;5.07;;;4.60;;
5608;SDS011;2826;51.354;9.588;2022-10-16T05:09:03;5.57;;;4.30;;
5608;SDS011;2826;51.354;9.588;2022-10-16T05:11:30;6.17;;;4.73;;
5608;SDS011;2826;51.354;9.588;2022-10-16T05:13:57;8.70;;;4.47;;
5608;SDS011;2826;51.354;9.588;2022-10-16T05:16:24;4.97;;;4.33;;
5608;SDS011;2826;51.354;9.588;2022-10-16T05:18:51;4.30;;;4.00;;
5608;SDS011;2826;51.354;9.588;2022-10-16T05:21:19;3.80;;;3.43;;
5608;SDS011;2826;51.354;9.588;2022-10-16T05:23:48;3.90;;;3.60;;
5608;SDS011;2826;51.354;9.588;2022-10-16T05:26:15;6.50;;;3.30;;
5608;SDS011;2826;51.354;9.588;2022-10-16T05:28:41;3.80;;;3.50;;
5608;SDS011;2826;51.354;9.588;2022-10-16T05:31:09;3.50;;;3.20;;
5608;SDS011;2826;51.354;9.588;2022-10-16T05:33:36;8.43;;;3.47;;
5608;SDS011;2826;51.354;9.588;2022-10-16T05:36:03;3.47;;;3.17;;
5608;SDS011;2826;51.354;9.588;2022-10-16T05:38:32;6.53;;;3.37;;
5608;SDS011;2826;51.354;9.588;2022-10-16T05:41:00;4.60;;;3.20;;
5608;SDS011;2826;51.354;9.588;2022-10-16T05:43:28;3.13;;;2.87;;
5608;SDS011;2826;51.354;9.588;2022-10-16T05:45:55;21.33;;;4.03;;
5608;SDS011;2826;51.354;9.588;2022-10-16T05:48:23;22.00;;;4.90;;
5608;SDS011;2826;51.354;9.588;2022-10-16T05:50:56;5.63;;;4.00;;
5608;SDS011;2826;51.354;9.588;2022-10-16T05:53:23;4.60;;;4.10;;
5608;SDS011;2826;51.354;9.588;2022-10-16T05:55:54;5.00;;;3.90;;
5608;SDS011;2826;51.354;9.588;2022-10-16T05:58:23;4.30;;;3.90;;
5608;SDS011;2826;51.354;9.588;2022-10-16T06:00:54;6.13;;;4.53;;
5608;SDS011;2826;51.354;9.588;2022-10-16T06:03:21;8.63;;;5.03;;
5608;SDS011;2826;51.354;9.588;2022-10-16T06:05:49;5.47;;;4.97;;
5608;SDS011;2826;51.354;9.588;2022-10-16T06:08:16;13.37;;;4.77;;
5608;SDS011;2826;51.354;9.588;2022-10-16T06:10:43;6.97;;;5.37;;
5608;SDS011;2826;51.354;9.588;2022-10-16T06:13:10;6.17;;;4.83;;
5608;SDS011;2826;51.354;9.588;2022-10-16T06:15:39;6.10;;;5.50;;
5608;SDS011;2826;51.354;9.588;2022-10-16T06:18:08;7.43;;;5.83;;
5608;SDS011;2826;51.354;9.588;2022-10-16T06:20:35;8.73;;;5.50;;
5608;SDS011;2826;51.354;9.588;2022-10-16T06:23:02;13.83;;;6.43;;
5608;SDS011;2826;51.354;9.588;2022-10-16T06:25:29;11.83;;;6.80;;
5608;SDS011;2826;51.354;9.588;2022-10-16T06:27:56;10.50;;;5.60;;
5608;SDS011;2826;51.354;9.588;2022-10-16T06:30:23;8.53;;;5.50;;
5608;SDS011;2826;51.354;9.588;2022-10-16T06:32:51;11.73;;;5.33;;
5608;SDS011;2826;51.354;9.588;2022-10-16T06:35:18;7.00;;;5.90;;
5608;SDS011;2826;51.354;9.588;2022-10-16T06:37:45;7.93;;;6.20;;
5608;SDS011;2826;51.354;9.588;2022-10-16T06:40:12;8.97;;;6.20;;
5608;SDS011;2826;51.354;9.588;2022-10-16T06:42:40;7.87;;;5.77;;
5608;SDS011;2826;51.354;9.588;2022-10-16T06:45:07;8.47;;;6.57;;
5608;SDS011;2826;51.354;9.588;2022-10-16T06:47:34;5.90;;;5.30;;
5608;SDS011;2826;51.354;9.588;2022-10-16T06:50:03;6.93;;;5.07;;
5608;SDS011;2826;51.354;9.588;2022-10-16T06:52:32;6.70;;;5.80;;
5608;SDS011;2826;51.354;9.588;2022-10-16T06:54:59;10.37;;;5.50;;
5608;SDS011;2826;51.354;9.588;2022-10-16T06:57:26;5.20;;;4.20;;
5608;SDS011;2826;51.354;9.588;2022-10-16T06:59:53;7.67;;;4.40;;
5608;SDS011;2826;51.354;9.588;2022-10-16T07:02:20;5.73;;;3.77;;
5608;SDS011;2826;51.354;9.588;2022-10-16T07:04:47;5.67;;;4.20;;
5608;SDS011;2826;51.354;9.588;2022-10-16T07:07:15;10.97;;;4.40;;
5608;SDS011;2826;51.354;9.588;2022-10-16T07:09:42;6.40;;;3.23;;
5608;SDS011;2826;51.354;9.588;2022-10-16T07:12:09;5.10;;;2.60;;
5608;SDS011;2826;51.354;9.588;2022-10-16T07:14:35;10.60;;;2.87;;
5608;SDS011;2826;51.354;9.588;2022-10-16T07:17:02;2.40;;;2.20;;
5608;SDS011;2826;51.354;9.588;2022-10-16T07:19:29;6.43;;;2.60;;
5608;SDS011;2826;51.354;9.588;2022-10-16T07:21:56;3.00;;;2.80;;
5608;SDS011;2826;51.354;9.588;2022-10-16T07:24:24;3.70;;;2.90;;
5608;SDS011;2826;51.354;9.588;2022-10-16T07:26:51;4.53;;;3.40;;
5608;SDS011;2826;51.354;9.588;2022-10-16T07:29:19;3.90;;;3.20;;
5608;SDS011;2826;51.354;9.588;2022-10-16T07:31:48;5.00;;;2.90;;
5608;SDS011;2826;51.354;9.588;2022-10-16T07:34:16;12.13;;;3.27;;
5608;SDS011;2826;51.354;9.588;2022-10-16T07:36:46;3.80;;;3.10;;
5608;SDS011;2826;51.354;9.588;2022-10-16T07:39:14;4.17;;;3.30;;
5608;SDS011;2826;51.354;9.588;2022-10-16T07:41:42;11.30;;;3.40;;
5608;SDS011;2826;51.354;9.588;2022-10-16T07:44:09;9.07;;;3.17;;
5608;SDS011;2826;51.354;9.588;2022-10-16T07:46:36;6.10;;;3.50;;
5608;SDS011;2826;51.354;9.588;2022-10-16T07:49:03;4.87;;;3.40;;
5608;SDS011;2826;51.354;9.588;2022-10-16T07:51:30;3.60;;;3.17;;
5608;SDS011;2826;51.354;9.588;2022-10-16T07:53:57;2.90;;;2.70;;
5608;SDS011;2826;51.354;9.588;2022-10-16T07:56:24;2.70;;;2.50;;
5608;SDS011;2826;51.354;9.588;2022-10-16T07:58:52;4.03;;;2.97;;
5608;SDS011;2826;51.354;9.588;2022-10-16T08:01:19;5.00;;;2.30;;
5608;SDS011;2826;51.354;9.588;2022-10-16T08:03:46;2.73;;;2.50;;
5608;SDS011;2826;51.354;9.588;2022-10-16T08:06:14;6.27;;;3.70;;
5608;SDS011;2826;51.354;9.588;2022-10-16T08:08:42;5.33;;;3.53;;
5608;SDS011;2826;51.354;9.588;2022-10-16T08:11:09;2.50;;;2.30;;
5608;SDS011;2826;51.354;9.588;2022-10-16T08:13:36;4.20;;;3.37;;
5608;SDS011;2826;51.354;9.588;2022-10-16T08:16:05;3.47;;;3.13;;
5608;SDS011;2826;51.354;9.588;2022-10-16T08:18:33;3.50;;;3.20;;
5608;SDS011;2826;51.354;9.588;2022-10-16T08:21:00;3.37;;;3.07;;
5608;SDS011;2826;51.354;9.588;2022-10-16T08:23:28;8.23;;;3.10;;
5608;SDS011;2826;51.354;9.588;2022-10-16T08:25:55;3.23;;;2.27;;
5608;SDS011;2826;51.354;9.588;2022-10-16T08:28:27;2.70;;;2.50;;
5608;SDS011;2826;51.354;9.588;2022-10-16T08:30:54;2.57;;;2.37;;
5608;SDS011;2826;51.354;9.588;2022-10-16T08:33:23;2.50;;;2.30;;
5608;SDS011;2826;51.354;9.588;2022-10-16T08:35:50;5.20;;;2.50;;
5608;SDS011;2826;51.354;9.588;2022-10-16T08:38:19;2.47;;;2.27;;
5608;SDS011;2826;51.354;9.588;2022-10-16T08:40:46;2.87;;;2.57;;
5608;SDS011;2826;51.354;9.588;2022-10-16T08:46:12;2.37;;;2.00;;
5608;SDS011;2826;51.354;9.588;2022-10-16T08:48:50;5.43;;;2.23;;
5608;SDS011;2826;51.354;9.588;2022-10-16T08:51:19;2.53;;;2.30;;
5608;SDS011;2826;51.354;9.588;2022-10-16T08:53:49;2.20;;;2.00;;
5608;SDS011;2826;51.354;9.588;2022-10-16T08:56:21;2.50;;;2.23;;
5608;SDS011;2826;51.354;9.588;2022-10-16T08:58:49;6.70;;;2.57;;
5608;SDS011;2826;51.354;9.588;2022-10-16T09:01:17;7.20;;;2.20;;
5608;SDS011;2826;51.354;9.588;2022-10-16T09:03:56;3.07;;;1.93;;
5608;SDS011;2826;51.354;9.588;2022-10-16T09:06:36;3.23;;;2.40;;
5608;SDS011;2826;51.354;9.588;2022-10-16T09:09:22;6.17;;;2.50;;
5608;SDS011;2826;51.354;9.588;2022-10-16T09:12:02;1.97;;;1.87;;
5608;SDS011;2826;51.354;9.588;2022-10-16T09:14:41;5.40;;;2.37;;
5608;SDS011;2826;51.354;9.588;2022-10-16T09:20:23;2.63;;;2.30;;
5608;SDS011;2826;51.354;9.588;2022-10-16T09:23:00;3.93;;;2.17;;
5608;SDS011;2826;51.354;9.588;2022-10-16T09:25:38;2.20;;;2.10;;
5608;SDS011;2826;51.354;9.588;2022-10-16T09:28:08;2.20;;;2.00;;
5608;SDS011;2826;51.354;9.588;2022-10-16T09:30:36;5.80;;;2.37;;
5608;SDS011;2826;51.354;9.588;2022-10-16T09:33:04;2.17;;;1.90;;
5608;SDS011;2826;51.354;9.588;2022-10-16T09:35:35;2.10;;;1.73;;
5608;SDS011;2826;51.354;9.588;2022-10-16T09:38:04;4.20;;;2.17;;
5608;SDS011;2826;51.354;9.588;2022-10-16T09:40:33;4.33;;;2.27;;
5608;SDS011;2826;51.354;9.588;2022-10-16T09:43:03;2.00;;;1.87;;
5608;SDS011;2826;51.354;9.588;2022-10-16T09:45:55;1.80;;;1.70;;
5608;SDS011;2826;51.354;9.588;2022-10-16T09:48:23;2.20;;;1.80;;
5608;SDS011;2826;51.354;9.588;2022-10-16T09:50:57;2.70;;;1.50;;
5608;SDS011;2826;51.354;9.588;2022-10-16T09:53:39;2.77;;;1.70;;
5608;SDS011;2826;51.354;9.588;2022-10-16T09:56:09;1.90;;;1.80;;
5608;SDS011;2826;51.354;9.588;2022-10-16T09:58:42;4.37;;;1.53;;
5608;SDS011;2826;51.354;9.588;2022-10-16T10:01:12;3.03;;;1.40;;
5608;SDS011;2826;51.354;9.588;2022-10-16T10:03:41;3.47;;;1.50;;
5608;SDS011;2826;51.354;9.588;2022-10-16T10:06:20;1.97;;;1.43;;
5608;SDS011;2826;51.354;9.588;2022-10-16T10:09:00;3.73;;;1.50;;
5608;SDS011;2826;51.354;9.588;2022-10-16T10:11:37;1.50;;;1.40;;
5608;SDS011;2826;51.354;9.588;2022-10-16T10:14:15;1.77;;;1.50;;
5608;SDS011;2826;51.354;9.588;2022-10-16T10:16:45;1.80;;;1.70;;
5608;SDS011;2826;51.354;9.588;2022-10-16T10:19:15;3.47;;;1.70;;
5608;SDS011;2826;51.354;9.588;2022-10-16T10:21:45;2.00;;;1.90;;
5608;SDS011;2826;51.354;9.588;2022-10-16T10:24:13;2.47;;;1.73;;
5608;SDS011;2826;51.354;9.588;2022-10-16T10:26:41;2.60;;;1.60;;
5608;SDS011;2826;51.354;9.588;2022-10-16T10:29:17;2.13;;;1.40;;
5608;SDS011;2826;51.354;9.588;2022-10-16T10:31:56;1.40;;;1.30;;
5608;SDS011;2826;51.354;9.588;2022-10-16T10:34:36;2.17;;;1.50;;
5608;SDS011;2826;51.354;9.588;2022-10-16T10:37:19;2.13;;;1.50;;
5608;SDS011;2826;51.354;9.588;2022-10-16T10:39:58;4.80;;;1.30;;
5608;SDS011;2826;51.354;9.588;2022-10-16T10:42:39;3.47;;;1.40;;
5608;SDS011;2826;51.354;9.588;2022-10-16T10:45:18;8.53;;;1.30;;
5608;SDS011;2826;51.354;9.588;2022-10-16T10:47:56;1.50;;;1.40;;
5608;SDS011;2826;51.354;9.588;2022-10-16T10:50:34;3.67;;;1.30;;
5608;SDS011;2826;51.354;9.588;2022-10-16T10:53:11;4.43;;;1.30;;
5608;SDS011;2826;51.354;9.588;2022-10-16T10:55:49;1.97;;;1.23;;
5608;SDS011;2826;51.354;9.588;2022-10-16T11:01:18;4.00;;;1.37;;
5608;SDS011;2826;51.354;9.588;2022-10-16T11:04:07;1.20;;;1.10;;
5608;SDS011;2826;51.354;9.588;2022-10-16T11:06:50;1.03;;;0.93;;
5608;SDS011;2826;51.354;9.588;2022-10-16T11:09:24;1.30;;;1.00;;
5608;SDS011;2826;51.354;9.588;2022-10-16T11:11:56;3.57;;;1.20;;
5608;SDS011;2826;51.354;9.588;2022-10-16T11:14:28;9.67;;;1.07;;
5608;SDS011;2826;51.354;9.588;2022-10-16T11:17:01;1.20;;;1.07;;
5608;SDS011;2826;51.354;9.588;2022-10-16T11:19:34;9.20;;;1.73;;
5608;SDS011;2826;51.354;9.588;2022-10-16T11:22:11;1.17;;;1.07;;
5608;SDS011;2826;51.354;9.588;2022-10-16T11:24:47;7.50;;;1.10;;
5608;SDS011;2826;51.354;9.588;2022-10-16T11:27:19;1.10;;;0.97;;
5608;SDS011;2826;51.354;9.588;2022-10-16T11:29:52;1.20;;;1.10;;
5608;SDS011;2826;51.354;9.588;2022-10-16T11:32:26;4.83;;;1.00;;
5608;SDS011;2826;51.354;9.588;2022-10-16T11:34:57;0.83;;;0.83;;
5608;SDS011;2826;51.354;9.588;2022-10-16T11:37:30;0.90;;;0.80;;
5608;SDS011;2826;51.354;9.588;2022-10-16T11:40:10;1.67;;;0.83;;
5608;SDS011;2826;51.354;9.588;2022-10-16T11:42:46;1.77;;;1.23;;
5608;SDS011;2826;51.354;9.588;2022-10-16T11:45:23;3.03;;;1.37;;
5608;SDS011;2826;51.354;9.588;2022-10-16T11:47:54;3.63;;;1.00;;
5608;SDS011;2826;51.354;9.588;2022-10-16T11:50:28;1.23;;;1.13;;
5608;SDS011;2826;51.354;9.588;2022-10-16T11:53:02;1.03;;;0.90;;
5608;SDS011;2826;51.354;9.588;2022-10-16T11:55:41;5.63;;;1.30;;
5608;SDS011;2826;51.354;9.588;2022-10-16T11:58:09;1.27;;;1.17;;
5608;SDS011;2826;51.354;9.588;2022-10-16T12:00:46;9.17;;;1.40;;
5608;SDS011;2826;51.354;9.588;2022-10-16T12:03:19;1.93;;;0.93;;
5608;SDS011;2826;51.354;9.588;2022-10-16T12:05:52;2.70;;;0.90;;
5608;SDS011;2826;51.354;9.588;2022-10-16T12:08:26;3.27;;;1.00;;
5608;SDS011;2826;51.354;9.588;2022-10-16T12:11:05;1.60;;;1.50;;
5608;SDS011;2826;51.354;9.588;2022-10-16T12:13:34;12.43;;;2.20;;
5608;SDS011;2826;51.354;9.588;2022-10-16T12:16:22;4.03;;;1.00;;
5608;SDS011;2826;51.354;9.588;2022-10-16T12:18:50;1.90;;;1.07;;
5608;SDS011;2826;51.354;9.588;2022-10-16T12:21:35;1.00;;;0.77;;
5608;SDS011;2826;51.354;9.588;2022-10-16T12:24:02;4.07;;;1.40;;
5608;SDS011;2826;51.354;9.588;2022-10-16T12:26:32;2.20;;;0.80;;
5608;SDS011;2826;51.354;9.588;2022-10-16T12:29:13;1.40;;;0.93;;
5608;SDS011;2826;51.354;9.588;2022-10-16T12:31:47;4.00;;;0.90;;
5608;SDS011;2826;51.354;9.588;2022-10-16T12:34:19;2.53;;;1.13;;
5608;SDS011;2826;51.354;9.588;2022-10-16T12:36:49;1.00;;;0.90;;
5608;SDS011;2826;51.354;9.588;2022-10-16T12:39:24;1.59;;;0.87;;
5608;SDS011;2826;51.354;9.588;2022-10-16T12:42:03;2.50;;;0.90;;
5608;SDS011;2826;51.354;9.588;2022-10-16T12:44:31;0.80;;;0.80;;
5608;SDS011;2826;51.354;9.588;2022-10-16T12:46:59;2.30;;;0.80;;
5608;SDS011;2826;51.354;9.588;2022-10-16T12:49:30;3.10;;;0.90;;
5608;SDS011;2826;51.354;9.588;2022-10-16T12:51:58;1.53;;;1.30;;
5608;SDS011;2826;51.354;9.588;2022-10-16T12:54:27;1.70;;;0.97;;
5608;SDS011;2826;51.354;9.588;2022-10-16T12:57:00;1.00;;;0.90;;
5608;SDS011;2826;51.354;9.588;2022-10-16T12:59:38;1.47;;;0.97;;
5608;SDS011;2826;51.354;9.588;2022-10-16T13:02:21;0.80;;;0.80;;
5608;SDS011;2826;51.354;9.588;2022-10-16T13:05:16;0.80;;;0.77;;
5608;SDS011;2826;51.354;9.588;2022-10-16T13:07:55;1.03;;;0.90;;
5608;SDS011;2826;51.354;9.588;2022-10-16T13:10:33;3.93;;;1.00;;
5608;SDS011;2826;51.354;9.588;2022-10-16T13:16:25;1.10;;;0.90;;
5608;SDS011;2826;51.354;9.588;2022-10-16T13:19:02;2.23;;;0.90;;
5608;SDS011;2826;51.354;9.588;2022-10-16T13:21:46;1.30;;;1.07;;
5608;SDS011;2826;51.354;9.588;2022-10-16T13:24:19;1.00;;;0.90;;
5608;SDS011;2826;51.354;9.588;2022-10-16T13:27:01;1.00;;;0.90;;
5608;SDS011;2826;51.354;9.588;2022-10-16T13:29:34;1.37;;;1.00;;
5608;SDS011;2826;51.354;9.588;2022-10-16T13:32:07;2.17;;;1.00;;
5608;SDS011;2826;51.354;9.588;2022-10-16T13:34:42;1.83;;;0.93;;
5608;SDS011;2826;51.354;9.588;2022-10-16T13:37:16;1.20;;;0.90;;
5608;SDS011;2826;51.354;9.588;2022-10-16T13:39:45;10.13;;;1.10;;
5608;SDS011;2826;51.354;9.588;2022-10-16T13:42:14;2.03;;;0.90;;
5608;SDS011;2826;51.354;9.588;2022-10-16T13:44:50;2.07;;;1.00;;
5608;SDS011;2826;51.354;9.588;2022-10-16T13:47:20;0.80;;;0.80;;
5608;SDS011;2826;51.354;9.588;2022-10-16T13:49:58;1.30;;;0.90;;
5608;SDS011;2826;51.354;9.588;2022-10-16T13:52:27;1.33;;;1.00;;
5608;SDS011;2826;51.354;9.588;2022-10-16T13:54:53;1.30;;;0.93;;
5608;SDS011;2826;51.354;9.588;2022-10-16T13:57:21;3.27;;;0.80;;
5608;SDS011;2826;51.354;9.588;2022-10-16T13:59:49;1.87;;;0.90;;
5608;SDS011;2826;51.354;9.588;2022-10-16T14:02:20;2.17;;;1.63;;
5608;SDS011;2826;51.354;9.588;2022-10-16T14:04:51;5.23;;;1.37;;
5608;SDS011;2826;51.354;9.588;2022-10-16T14:07:22;7.70;;;1.33;;
5608;SDS011;2826;51.354;9.588;2022-10-16T14:09:51;1.97;;;1.10;;
5608;SDS011;2826;51.354;9.588;2022-10-16T14:12:19;1.43;;;1.13;;
5608;SDS011;2826;51.354;9.588;2022-10-16T14:14:48;3.27;;;1.10;;
5608;SDS011;2826;51.354;9.588;2022-10-16T14:17:20;3.33;;;1.07;;
5608;SDS011;2826;51.354;9.588;2022-10-16T14:19:51;2.97;;;1.20;;
5608;SDS011;2826;51.354;9.588;2022-10-16T14:22:22;1.37;;;1.20;;
5608;SDS011;2826;51.354;9.588;2022-10-16T14:24:55;2.63;;;1.10;;
5608;SDS011;2826;51.354;9.588;2022-10-16T14:27:24;1.10;;;0.90;;
5608;SDS011;2826;51.354;9.588;2022-10-16T14:30:08;2.17;;;1.00;;
5608;SDS011;2826;51.354;9.588;2022-10-16T14:32:41;1.00;;;0.90;;
5608;SDS011;2826;51.354;9.588;2022-10-16T14:35:22;2.83;;;0.90;;
5608;SDS011;2826;51.354;9.588;2022-10-16T14:37:51;3.33;;;1.00;;
5608;SDS011;2826;51.354;9.588;2022-10-16T14:40:19;2.07;;;1.10;;
5608;SDS011;2826;51.354;9.588;2022-10-16T14:42:48;2.17;;;0.80;;
5608;SDS011;2826;51.354;9.588;2022-10-16T14:45:18;1.20;;;1.10;;
5608;SDS011;2826;51.354;9.588;2022-10-16T14:47:49;2.90;;;1.10;;
5608;SDS011;2826;51.354;9.588;2022-10-16T14:50:19;1.20;;;1.10;;
5608;SDS011;2826;51.354;9.588;2022-10-16T14:52:46;2.70;;;1.07;;
5608;SDS011;2826;51.354;9.588;2022-10-16T14:55:13;1.20;;;1.10;;
5608;SDS011;2826;51.354;9.588;2022-10-16T14:57:40;1.50;;;0.90;;
5608;SDS011;2826;51.354;9.588;2022-10-16T15:00:10;4.83;;;1.57;;
5608;SDS011;2826;51.354;9.588;2022-10-16T15:02:43;3.40;;;1.00;;
5608;SDS011;2826;51.354;9.588;2022-10-16T15:05:12;2.03;;;0.87;;
5608;SDS011;2826;51.354;9.588;2022-10-16T15:07:42;1.10;;;1.00;;
5608;SDS011;2826;51.354;9.588;2022-10-16T15:10:09;0.90;;;0.90;;
5608;SDS011;2826;51.354;9.588;2022-10-16T15:12:36;1.47;;;1.00;;
5608;SDS011;2826;51.354;9.588;2022-10-16T15:15:09;3.17;;;1.10;;
5608;SDS011;2826;51.354;9.588;2022-10-16T15:17:58;3.27;;;0.83;;
5608;SDS011;2826;51.354;9.588;2022-10-16T15:20:27;13.20;;;1.20;;
5608;SDS011;2826;51.354;9.588;2022-10-16T15:22:56;1.30;;;0.90;;
5608;SDS011;2826;51.354;9.588;2022-10-16T15:25:27;2.23;;;0.93;;
5608;SDS011;2826;51.354;9.588;2022-10-16T15:27:58;5.00;;;1.00;;
5608;SDS011;2826;51.354;9.588;2022-10-16T15:30:26;1.77;;;1.00;;
5608;SDS011;2826;51.354;9.588;2022-10-16T15:32:53;4.63;;;0.80;;
5608;SDS011;2826;51.354;9.588;2022-10-16T15:35:20;1.43;;;0.93;;
5608;SDS011;2826;51.354;9.588;2022-10-16T15:37:48;1.37;;;1.00;;
5608;SDS011;2826;51.354;9.588;2022-10-16T15:40:16;3.00;;;1.00;;
5608;SDS011;2826;51.354;9.588;2022-10-16T15:42:44;1.03;;;0.93;;
5608;SDS011;2826;51.354;9.588;2022-10-16T15:45:12;2.40;;;1.20;;